createdAt,value
2022-10-08T00:00:28.403Z,15.4
2022-10-08T00:01:28.446Z,15.4
2022-10-08T00:02:28.371Z,15.4
2022-10-08T00:03:28.393Z,15.4
2022-10-08T00:04:28.543Z,15.4
2022-10-08T00:05:28.385Z,15.4
2022-10-08T00:06:28.384Z,15.4
2022-10-08T00:07:28.382Z,15.4
2022-10-08T00:08:28.397Z,15.4
2022-10-08T00:09:28.375Z,15.4
2022-10-08T00:10:28.380Z,15.4
2022-10-08T00:11:28.361Z,15.4
2022-10-08T00:12:28.374Z,15.4
2022-10-08T00:13:28.397Z,15.4
2022-10-08T00:14:28.379Z,15.4
2022-10-08T00:15:28.413Z,15.4
2022-10-08T00:16:28.494Z,15.4
2022-10-08T00:17:28.400Z,15.4
2022-10-08T00:18:28.376Z,15.4
2022-10-08T00:19:28.382Z,15.4
2022-10-08T00:20:28.399Z,15.4
2022-10-08T00:21:28.384Z,15.4
2022-10-08T00:22:28.395Z,15.4
2022-10-08T00:23:28.386Z,15.4
2022-10-08T00:24:28.375Z,15.4
2022-10-08T00:25:28.392Z,15.4
2022-10-08T00:26:28.402Z,15.4
2022-10-08T00:27:28.375Z,15.4
2022-10-08T00:28:28.455Z,15.4
2022-10-08T00:29:28.395Z,15.4
2022-10-08T00:30:28.397Z,15.4
2022-10-08T00:31:28.491Z,15.4
2022-10-08T00:32:28.374Z,15.4
2022-10-08T00:33:28.401Z,15.4
2022-10-08T00:34:28.375Z,15.4
2022-10-08T00:35:28.385Z,15.4
2022-10-08T00:36:28.396Z,15.4
2022-10-08T00:37:28.393Z,15.4
2022-10-08T00:38:28.369Z,15.4
2022-10-08T00:39:28.408Z,15.4
2022-10-08T00:40:28.387Z,15.4
2022-10-08T00:41:28.423Z,15.4
2022-10-08T00:42:28.386Z,15.4
2022-10-08T00:43:28.398Z,15.4
2022-10-08T00:44:28.391Z,15.4
2022-10-08T00:45:28.422Z,15.4
2022-10-08T00:46:28.378Z,15.4
2022-10-08T00:47:28.408Z,15.4
2022-10-08T00:48:28.381Z,15.4
2022-10-08T00:49:28.381Z,15.4
2022-10-08T00:50:28.396Z,15.4
2022-10-08T00:51:28.395Z,15.4
2022-10-08T00:52:28.394Z,15.4
2022-10-08T00:53:28.378Z,15.4
2022-10-08T00:54:28.381Z,15.4
2022-10-08T00:55:28.366Z,15.4
2022-10-08T00:56:28.380Z,15.4
2022-10-08T00:57:28.416Z,15.4
2022-10-08T00:58:28.384Z,15.4
2022-10-08T00:59:28.368Z,15.4
2022-10-08T01:00:28.379Z,15.4
2022-10-08T01:01:28.450Z,15.4
2022-10-08T01:02:28.511Z,15.4
2022-10-08T01:03:28.402Z,15.4
2022-10-08T01:04:28.387Z,15.4
2022-10-08T01:05:28.356Z,15.4
2022-10-08T01:06:28.388Z,15.4
2022-10-08T01:07:28.407Z,15.4
2022-10-08T01:08:28.371Z,15.4
2022-10-08T01:09:28.388Z,15.4
2022-10-08T01:10:28.369Z,15.4
2022-10-08T01:11:28.385Z,15.4
2022-10-08T01:12:28.380Z,15.4
2022-10-08T01:13:28.377Z,15.4
2022-10-08T01:14:28.395Z,15.4
2022-10-08T01:15:28.357Z,15.4
2022-10-08T01:16:28.421Z,15.4
2022-10-08T01:17:28.378Z,15.4
2022-10-08T01:18:28.378Z,15.4
2022-10-08T01:19:28.362Z,15.4
2022-10-08T01:20:28.379Z,15.4
2022-10-08T01:21:28.372Z,15.4
2022-10-08T01:22:28.391Z,15.4
2022-10-08T01:23:28.415Z,15.4
2022-10-08T01:24:28.376Z,15.4
2022-10-08T01:25:28.378Z,15.4
2022-10-08T01:26:28.383Z,15.4
2022-10-08T01:27:28.382Z,15.4
2022-10-08T01:28:28.453Z,15.4
2022-10-08T01:29:28.400Z,15.4
2022-10-08T01:30:28.361Z,15.4
2022-10-08T01:31:28.436Z,15.4
2022-10-08T01:32:28.375Z,15.4
2022-10-08T01:33:28.372Z,15.4
2022-10-08T01:34:28.388Z,15.4
2022-10-08T01:35:28.396Z,15.4
2022-10-08T01:36:28.355Z,15.4
2022-10-08T01:37:28.404Z,15.4
2022-10-08T01:38:28.370Z,15.4
2022-10-08T01:39:28.381Z,15.4
2022-10-08T01:40:28.378Z,15.4
2022-10-08T01:41:28.381Z,15.4
2022-10-08T01:42:28.368Z,15.4
2022-10-08T01:43:28.372Z,15.4
2022-10-08T01:44:28.387Z,15.4
2022-10-08T01:45:28.432Z,15.4
2022-10-08T01:46:28.360Z,15.4
2022-10-08T01:47:28.370Z,15.4
2022-10-08T01:48:28.364Z,15.4
2022-10-08T01:49:28.386Z,15.4
2022-10-08T01:50:28.390Z,15.4
2022-10-08T01:51:28.372Z,15.4
2022-10-08T01:52:28.382Z,15.4
2022-10-08T01:53:28.386Z,15.4
2022-10-08T01:54:28.499Z,15.4
2022-10-08T01:55:28.374Z,15.5
2022-10-08T01:56:28.381Z,15.4
2022-10-08T01:57:28.390Z,15.4
2022-10-08T01:58:28.397Z,15.4
2022-10-08T01:59:28.389Z,15.5
2022-10-08T02:00:28.363Z,15.4
2022-10-08T02:01:28.410Z,15.5
2022-10-08T02:02:28.503Z,15.4
2022-10-08T02:03:28.366Z,15.5
2022-10-08T02:04:28.356Z,15.4
2022-10-08T02:05:28.385Z,15.4
2022-10-08T02:06:28.382Z,15.4
2022-10-08T02:07:28.373Z,15.4
2022-10-08T02:08:28.363Z,15.4
2022-10-08T02:09:28.379Z,15.4
2022-10-08T02:10:28.388Z,15.4
2022-10-08T02:11:28.364Z,15.5
2022-10-08T02:12:28.355Z,15.4
2022-10-08T02:13:28.380Z,15.4
2022-10-08T02:14:28.364Z,15.4
2022-10-08T02:15:28.369Z,15.4
2022-10-08T02:16:28.457Z,15.5
2022-10-08T02:17:28.357Z,15.5
2022-10-08T02:18:28.347Z,15.4
2022-10-08T02:19:28.359Z,15.4
2022-10-08T02:20:28.396Z,15.4
2022-10-08T02:21:28.368Z,15.4
2022-10-08T02:22:28.376Z,15.4
2022-10-08T02:23:28.370Z,15.4
2022-10-08T02:24:28.359Z,15.4
2022-10-08T02:25:28.372Z,15.4
2022-10-08T02:26:28.376Z,15.4
2022-10-08T02:27:28.355Z,15.4
2022-10-08T02:28:28.515Z,15.4
2022-10-08T02:29:28.373Z,15.4
2022-10-08T02:30:28.370Z,15.4
2022-10-08T02:31:28.466Z,15.4
2022-10-08T02:32:28.359Z,15.4
2022-10-08T02:33:28.386Z,15.4
2022-10-08T02:34:28.374Z,15.4
2022-10-08T02:35:28.378Z,15.4
2022-10-08T02:36:28.371Z,15.4
2022-10-08T02:37:28.352Z,15.4
2022-10-08T02:38:28.371Z,15.4
2022-10-08T02:39:28.379Z,15.4
2022-10-08T02:40:28.390Z,15.4
2022-10-08T02:41:28.352Z,15.4
2022-10-08T02:42:28.365Z,15.4
2022-10-08T02:43:28.363Z,15.4
2022-10-08T02:44:28.373Z,15.4
2022-10-08T02:45:28.398Z,15.4
2022-10-08T02:46:28.405Z,15.4
2022-10-08T02:47:28.383Z,15.4
2022-10-08T02:48:28.379Z,15.4
2022-10-08T02:49:28.351Z,15.4
2022-10-08T02:50:28.361Z,15.4
2022-10-08T02:51:28.380Z,15.4
2022-10-08T02:52:28.345Z,15.4
2022-10-08T02:53:28.352Z,15.4
2022-10-08T02:54:28.369Z,15.4
2022-10-08T02:55:28.383Z,15.4
2022-10-08T02:56:28.378Z,15.4
2022-10-08T02:57:28.355Z,15.4
2022-10-08T02:58:28.346Z,15.4
2022-10-08T02:59:28.364Z,15.4
2022-10-08T03:00:28.374Z,15.4
2022-10-08T03:01:28.642Z,15.4
2022-10-08T03:02:28.395Z,15.4
2022-10-08T03:03:28.372Z,15.4
2022-10-08T03:04:28.372Z,15.4
2022-10-08T03:05:28.361Z,15.4
2022-10-08T03:06:28.381Z,15.4
2022-10-08T03:07:28.352Z,15.4
2022-10-08T03:08:28.336Z,15.4
2022-10-08T03:09:28.341Z,15.4
2022-10-08T03:10:28.351Z,15.4
2022-10-08T03:11:28.352Z,15.4
2022-10-08T03:12:28.367Z,15.4
2022-10-08T03:13:28.362Z,15.4
2022-10-08T03:14:28.347Z,15.4
2022-10-08T03:15:28.357Z,15.4
2022-10-08T03:16:28.407Z,15.4
2022-10-08T03:17:28.399Z,15.4
2022-10-08T03:18:28.352Z,15.4
2022-10-08T03:19:28.360Z,15.4
2022-10-08T03:20:28.368Z,15.4
2022-10-08T03:21:28.363Z,15.4
2022-10-08T03:22:28.362Z,15.4
2022-10-08T03:23:28.382Z,15.4
2022-10-08T03:24:28.364Z,15.4
2022-10-08T03:25:28.343Z,15.4
2022-10-08T03:26:28.356Z,15.4
2022-10-08T03:27:28.350Z,15.4
2022-10-08T03:28:28.460Z,15.4
2022-10-08T03:29:28.359Z,15.4
2022-10-08T03:30:28.448Z,15.4
2022-10-08T03:31:28.363Z,15.4
2022-10-08T03:32:28.345Z,15.4
2022-10-08T03:33:28.380Z,15.4
2022-10-08T03:34:28.372Z,15.4
2022-10-08T03:35:28.373Z,15.4
2022-10-08T03:36:28.362Z,15.4
2022-10-08T03:37:28.362Z,15.4
2022-10-08T03:38:28.378Z,15.4
2022-10-08T03:39:28.383Z,15.4
2022-10-08T03:40:28.346Z,15.4
2022-10-08T03:41:28.346Z,15.4
2022-10-08T03:42:28.358Z,15.5
2022-10-08T03:43:28.368Z,15.4
2022-10-08T03:44:28.398Z,15.4
2022-10-08T03:45:28.361Z,15.5
2022-10-08T03:46:28.418Z,15.5
2022-10-08T03:47:28.350Z,15.4
2022-10-08T03:48:28.349Z,15.4
2022-10-08T03:49:28.409Z,15.4
2022-10-08T03:50:28.367Z,15.4
2022-10-08T03:51:28.360Z,15.4
2022-10-08T03:52:28.368Z,15.4
2022-10-08T03:53:28.346Z,15.4
2022-10-08T03:54:28.354Z,15.4
2022-10-08T03:55:28.355Z,15.4
2022-10-08T03:56:28.341Z,15.4
2022-10-08T03:57:28.369Z,15.4
2022-10-08T03:58:28.362Z,15.4
2022-10-08T03:59:28.338Z,15.4
2022-10-08T04:00:28.377Z,15.5
2022-10-08T04:01:28.418Z,15.5
2022-10-08T04:02:28.435Z,15.5
2022-10-08T04:03:28.346Z,15.4
2022-10-08T04:04:28.367Z,15.4
2022-10-08T04:05:28.372Z,15.4
2022-10-08T04:06:28.360Z,15.4
2022-10-08T04:07:28.363Z,15.4
2022-10-08T04:08:28.347Z,15.4
2022-10-08T04:09:28.349Z,15.4
2022-10-08T04:10:28.362Z,15.4
2022-10-08T04:11:28.360Z,15.4
2022-10-08T04:12:28.372Z,15.4
2022-10-08T04:13:28.346Z,15.4
2022-10-08T04:14:28.349Z,15.4
2022-10-08T04:15:28.409Z,15.5
2022-10-08T04:16:28.351Z,15.5
2022-10-08T04:17:28.350Z,15.5
2022-10-08T04:18:28.347Z,15.5
2022-10-08T04:19:28.359Z,15.4
2022-10-08T04:20:28.372Z,15.4
2022-10-08T04:21:28.357Z,15.5
2022-10-08T04:22:28.344Z,15.5
2022-10-08T04:23:28.356Z,15.5
2022-10-08T04:24:28.360Z,15.5
2022-10-08T04:25:28.387Z,15.5
2022-10-08T04:26:28.365Z,15.4
2022-10-08T04:27:28.372Z,15.4
2022-10-08T04:28:28.448Z,15.4
2022-10-08T04:29:28.339Z,15.4
2022-10-08T04:30:28.361Z,15.4
2022-10-08T04:31:28.455Z,15.5
2022-10-08T04:32:28.358Z,15.5
2022-10-08T04:33:28.362Z,15.5
2022-10-08T04:34:28.360Z,15.5
2022-10-08T04:35:28.363Z,15.5
2022-10-08T04:36:28.357Z,15.5
2022-10-08T04:37:28.351Z,15.5
2022-10-08T04:38:28.357Z,15.5
2022-10-08T04:39:28.339Z,15.5
2022-10-08T04:40:28.361Z,15.5
2022-10-08T04:41:28.374Z,15.5
2022-10-08T04:42:28.336Z,15.5
2022-10-08T04:43:28.336Z,15.5
2022-10-08T04:44:28.340Z,15.5
2022-10-08T04:45:28.371Z,15.5
2022-10-08T04:46:28.482Z,15.5
2022-10-08T04:47:28.365Z,15.5
2022-10-08T04:48:28.363Z,15.5
2022-10-08T04:49:28.357Z,15.5
2022-10-08T04:50:28.341Z,15.5
2022-10-08T04:51:28.335Z,15.5
2022-10-08T04:52:28.350Z,15.5
2022-10-08T04:53:28.328Z,15.5
2022-10-08T04:54:28.365Z,15.4
2022-10-08T04:55:28.365Z,15.4
2022-10-08T04:56:28.369Z,15.5
2022-10-08T04:57:28.383Z,15.4
2022-10-08T04:58:28.344Z,15.4
2022-10-08T04:59:28.384Z,15.4
2022-10-08T05:00:28.350Z,15.4
2022-10-08T05:01:28.498Z,15.4
2022-10-08T05:02:28.514Z,15.4
2022-10-08T05:03:28.327Z,15.5
2022-10-08T05:04:28.357Z,15.4
2022-10-08T05:05:28.343Z,15.4
2022-10-08T05:06:28.350Z,15.4
2022-10-08T05:07:28.352Z,15.4
2022-10-08T05:08:28.349Z,15.4
2022-10-08T05:09:28.358Z,15.4
2022-10-08T05:10:28.351Z,15.5
2022-10-08T05:11:28.363Z,15.4
2022-10-08T05:12:28.335Z,15.4
2022-10-08T05:13:28.373Z,15.5
2022-10-08T05:14:28.341Z,15.5
2022-10-08T05:15:28.358Z,15.4
2022-10-08T05:16:28.362Z,15.4
2022-10-08T05:17:28.361Z,15.4
2022-10-08T05:18:28.381Z,15.4
2022-10-08T05:19:28.337Z,15.4
2022-10-08T05:20:28.334Z,15.4
2022-10-08T05:21:28.350Z,15.4
2022-10-08T05:22:28.346Z,15.4
2022-10-08T05:23:28.359Z,15.4
2022-10-08T05:24:28.323Z,15.5
2022-10-08T05:25:28.324Z,15.5
2022-10-08T05:27:28.344Z,15.5
2022-10-08T05:28:28.390Z,15.5
2022-10-08T05:29:28.349Z,15.4
2022-10-08T05:30:28.342Z,15.5
2022-10-08T05:31:28.403Z,15.5
2022-10-08T05:32:28.342Z,15.5
2022-10-08T05:33:28.338Z,15.4
2022-10-08T05:34:28.355Z,15.5
2022-10-08T05:35:28.339Z,15.5
2022-10-08T05:36:28.352Z,15.5
2022-10-08T05:37:28.335Z,15.4
2022-10-08T05:38:32.657Z,15.5
2022-10-08T05:39:28.385Z,15.5
2022-10-08T05:40:28.332Z,15.5
2022-10-08T05:41:28.335Z,15.5
2022-10-08T05:42:28.354Z,15.5
2022-10-08T05:43:28.349Z,15.4
2022-10-08T05:44:28.352Z,15.5
2022-10-08T05:45:28.351Z,15.5
2022-10-08T05:46:28.380Z,15.4
2022-10-08T05:47:28.352Z,15.5
2022-10-08T05:48:28.325Z,15.5
2022-10-08T05:49:28.349Z,15.5
2022-10-08T05:50:28.349Z,15.5
2022-10-08T05:51:28.333Z,15.5
2022-10-08T05:52:31.128Z,15.5
2022-10-08T05:53:28.312Z,15.5
2022-10-08T05:54:28.346Z,15.5
2022-10-08T05:55:28.379Z,15.5
2022-10-08T05:56:28.349Z,15.5
2022-10-08T05:57:28.344Z,15.5
2022-10-08T05:58:30.485Z,15.5
2022-10-08T05:59:28.330Z,15.5
2022-10-08T06:00:28.466Z,15.5
2022-10-08T06:01:28.385Z,15.5
2022-10-08T06:02:28.359Z,15.5
2022-10-08T06:03:28.330Z,15.5
2022-10-08T06:04:28.382Z,15.5
2022-10-08T06:05:28.342Z,15.5
2022-10-08T06:06:28.345Z,15.5
2022-10-08T06:07:28.327Z,15.5
2022-10-08T06:08:28.345Z,15.5
2022-10-08T06:09:28.327Z,15.5
2022-10-08T06:10:28.423Z,15.5
2022-10-08T06:11:28.341Z,15.5
2022-10-08T06:12:28.333Z,15.5
2022-10-08T06:13:28.333Z,15.5
2022-10-08T06:14:28.355Z,15.5
2022-10-08T06:15:28.328Z,15.5
2022-10-08T06:16:28.475Z,15.5
2022-10-08T06:17:28.326Z,15.5
2022-10-08T06:18:28.332Z,15.5
2022-10-08T06:19:28.329Z,15.5
2022-10-08T06:20:31.858Z,15.5
2022-10-08T06:21:28.348Z,15.5
2022-10-08T06:22:28.334Z,15.5
2022-10-08T06:23:28.322Z,15.5
2022-10-08T06:24:28.343Z,15.5
2022-10-08T06:25:28.323Z,15.5
2022-10-08T06:26:31.752Z,15.5
2022-10-08T06:27:28.357Z,15.5
2022-10-08T06:28:28.422Z,15.5
2022-10-08T06:29:28.324Z,15.4
2022-10-08T06:30:28.380Z,15.5
2022-10-08T06:31:28.484Z,15.5
2022-10-08T06:32:28.347Z,15.5
2022-10-08T06:33:28.341Z,15.5
2022-10-08T06:34:28.321Z,15.5
2022-10-08T06:35:28.317Z,15.5
2022-10-08T06:36:28.330Z,15.4
2022-10-08T06:37:28.336Z,15.5
2022-10-08T06:38:28.329Z,15.5
2022-10-08T06:39:28.320Z,15.5
2022-10-08T06:40:28.333Z,15.5
2022-10-08T06:41:28.312Z,15.5
2022-10-08T06:42:28.348Z,15.6
2022-10-08T06:43:28.346Z,15.5
2022-10-08T06:44:28.332Z,15.5
2022-10-08T06:45:28.335Z,15.5
2022-10-08T06:46:28.344Z,15.5
2022-10-08T06:47:28.339Z,15.5
2022-10-08T06:48:28.340Z,15.5
2022-10-08T06:49:28.325Z,15.5
2022-10-08T06:50:28.342Z,15.5
2022-10-08T06:51:28.328Z,15.5
2022-10-08T06:52:28.344Z,15.5
2022-10-08T06:53:28.333Z,15.5
2022-10-08T06:54:28.320Z,15.5
2022-10-08T06:55:28.315Z,15.5
2022-10-08T06:56:28.338Z,15.5
2022-10-08T06:57:28.341Z,15.5
2022-10-08T06:58:28.349Z,15.6
2022-10-08T06:59:28.314Z,15.6
2022-10-08T07:00:28.331Z,15.5
2022-10-08T07:01:32.925Z,15.6
2022-10-08T07:02:28.416Z,15.5
2022-10-08T07:03:28.336Z,15.5
2022-10-08T07:04:28.321Z,15.5
2022-10-08T07:05:28.307Z,15.5
2022-10-08T07:06:28.334Z,15.5
2022-10-08T07:07:28.338Z,15.5
2022-10-08T07:08:28.336Z,15.5
2022-10-08T07:09:28.337Z,15.5
2022-10-08T07:10:33.033Z,15.5
2022-10-08T07:11:28.335Z,15.5
2022-10-08T07:12:28.325Z,15.4
2022-10-08T07:13:28.367Z,15.4
2022-10-08T07:14:28.333Z,15.5
2022-10-08T07:15:28.323Z,15.5
2022-10-08T07:16:28.367Z,15.5
2022-10-08T07:17:28.329Z,15.4
2022-10-08T07:18:28.348Z,15.4
2022-10-08T07:19:28.319Z,15.4
2022-10-08T07:20:28.312Z,15.4
2022-10-08T07:21:28.320Z,15.4
2022-10-08T07:22:28.326Z,15.4
2022-10-08T07:23:28.335Z,15.5
2022-10-08T07:24:28.337Z,15.5
2022-10-08T07:25:28.309Z,15.5
2022-10-08T07:26:28.332Z,15.4
2022-10-08T07:27:28.335Z,15.4
2022-10-08T07:28:28.366Z,15.5
2022-10-08T07:29:28.335Z,15.5
2022-10-08T07:30:28.335Z,15.5
2022-10-08T07:31:28.509Z,15.5
2022-10-08T07:32:28.324Z,15.5
2022-10-08T07:33:28.320Z,15.5
2022-10-08T07:34:28.302Z,15.5
2022-10-08T07:35:28.342Z,15.6
2022-10-08T07:36:28.338Z,15.5
2022-10-08T07:37:28.334Z,15.6
2022-10-08T07:38:28.336Z,15.5
2022-10-08T07:39:28.340Z,15.5
2022-10-08T07:40:28.304Z,15.6
2022-10-08T07:41:28.313Z,15.5
2022-10-08T07:42:28.315Z,15.5
2022-10-08T07:43:28.320Z,15.5
2022-10-08T07:44:28.330Z,15.5
2022-10-08T07:45:28.380Z,15.5
2022-10-08T07:46:28.317Z,15.5
2022-10-08T07:47:28.331Z,15.5
2022-10-08T07:48:32.938Z,15.5
2022-10-08T07:49:28.353Z,15.5
2022-10-08T07:50:28.317Z,15.5
2022-10-08T07:51:28.308Z,15.5
2022-10-08T07:52:28.300Z,15.6
2022-10-08T07:53:28.337Z,15.5
2022-10-08T07:54:28.350Z,15.6
2022-10-08T07:55:28.317Z,15.5
2022-10-08T07:56:28.313Z,15.5
2022-10-08T07:57:28.314Z,15.5
2022-10-08T07:58:28.327Z,15.5
2022-10-08T07:59:28.333Z,15.5
2022-10-08T08:00:28.421Z,15.5
2022-10-08T08:01:28.492Z,15.4
2022-10-08T08:02:28.364Z,15.5
2022-10-08T08:03:28.317Z,15.4
2022-10-08T08:04:28.325Z,15.5
2022-10-08T08:05:28.335Z,15.5
2022-10-08T08:06:28.325Z,15.5
2022-10-08T08:07:28.343Z,15.5
2022-10-08T08:08:28.327Z,15.5
2022-10-08T08:09:28.302Z,15.5
2022-10-08T08:10:28.312Z,15.5
2022-10-08T08:11:28.317Z,15.5
2022-10-08T08:12:28.316Z,15.4
2022-10-08T08:13:31.765Z,15.5
2022-10-08T08:14:28.297Z,15.5
2022-10-08T08:15:28.348Z,15.5
2022-10-08T08:16:28.424Z,15.5
2022-10-08T08:17:28.310Z,15.5
2022-10-08T08:18:28.320Z,15.4
2022-10-08T08:19:28.301Z,15.5
2022-10-08T08:20:28.325Z,15.5
2022-10-08T08:21:28.362Z,15.5
2022-10-08T08:22:28.295Z,15.4
2022-10-08T08:23:28.325Z,15.5
2022-10-08T08:24:28.334Z,15.4
2022-10-08T08:25:28.322Z,15.5
2022-10-08T08:26:28.321Z,15.5
2022-10-08T08:27:28.329Z,15.5
2022-10-08T08:28:28.335Z,15.4
2022-10-08T08:29:28.325Z,15.4
2022-10-08T08:30:28.325Z,15.4
2022-10-08T08:31:28.364Z,15.5
2022-10-08T08:32:28.667Z,15.5
2022-10-08T08:33:28.327Z,15.4
2022-10-08T08:34:28.309Z,15.4
2022-10-08T08:35:28.308Z,15.4
2022-10-08T08:36:28.344Z,15.5
2022-10-08T08:37:28.317Z,15.5
2022-10-08T08:38:28.332Z,15.5
2022-10-08T08:39:28.311Z,15.5
2022-10-08T08:40:28.319Z,15.5
2022-10-08T08:41:28.310Z,15.5
2022-10-08T08:42:28.317Z,15.5
2022-10-08T08:43:28.310Z,15.5
2022-10-08T08:44:28.312Z,15.5
2022-10-08T08:45:45.986Z,15.5
2022-10-08T08:46:28.447Z,15.5
2022-10-08T08:47:28.313Z,15.5
2022-10-08T08:48:28.333Z,15.5
2022-10-08T08:49:28.353Z,15.5
2022-10-08T08:50:28.321Z,15.5
2022-10-08T08:51:28.321Z,15.5
2022-10-08T08:52:28.334Z,15.5
2022-10-08T08:53:28.316Z,15.5
2022-10-08T08:54:28.311Z,15.5
2022-10-08T08:55:28.311Z,15.5
2022-10-08T08:56:28.326Z,15.5
2022-10-08T08:57:28.330Z,15.5
2022-10-08T08:58:28.325Z,15.5
2022-10-08T08:59:28.319Z,15.5
2022-10-08T09:00:28.308Z,15.5
2022-10-08T09:01:28.390Z,15.5
2022-10-08T09:02:28.331Z,15.5
2022-10-08T09:03:28.319Z,15.5
2022-10-08T09:04:28.289Z,15.5
2022-10-08T09:05:28.397Z,15.5
2022-10-08T09:06:28.307Z,15.4
2022-10-08T09:07:28.344Z,15.5
2022-10-08T09:08:28.311Z,15.5
2022-10-08T09:09:28.316Z,15.5
2022-10-08T09:10:28.307Z,15.4
2022-10-08T09:11:28.308Z,15.4
2022-10-08T09:12:28.309Z,15.5
2022-10-08T09:13:28.294Z,15.4
2022-10-08T09:14:28.312Z,15.5
2022-10-08T09:15:28.304Z,15.4
2022-10-08T09:16:28.372Z,15.4
2022-10-08T09:17:28.344Z,15.5
2022-10-08T09:18:28.321Z,15.5
2022-10-08T09:19:28.297Z,15.5
2022-10-08T09:20:28.316Z,15.5
2022-10-08T09:21:28.319Z,15.5
2022-10-08T09:22:28.329Z,15.5
2022-10-08T09:23:28.314Z,15.5
2022-10-08T09:24:28.312Z,15.5
2022-10-08T09:25:28.324Z,15.5
2022-10-08T09:26:28.287Z,15.5
2022-10-08T09:27:28.315Z,15.5
2022-10-08T09:28:28.354Z,15.5
2022-10-08T09:29:28.299Z,15.5
2022-10-08T09:30:28.344Z,15.5
2022-10-08T09:31:28.394Z,15.5
2022-10-08T09:32:28.315Z,15.4
2022-10-08T09:33:28.353Z,15.5
2022-10-08T09:34:28.296Z,15.5
2022-10-08T09:35:28.319Z,15.4
2022-10-08T09:36:28.328Z,15.5
2022-10-08T09:37:28.316Z,15.5
2022-10-08T09:38:28.334Z,15.5
2022-10-08T09:39:28.300Z,15.4
2022-10-08T09:40:28.329Z,15.5
2022-10-08T09:41:28.283Z,15.4
2022-10-08T09:42:28.319Z,15.4
2022-10-08T09:43:28.298Z,15.4
2022-10-08T09:44:28.348Z,15.4
2022-10-08T09:45:28.308Z,15.4
2022-10-08T09:46:28.410Z,15.4
2022-10-08T09:47:28.303Z,15.4
2022-10-08T09:48:28.330Z,15.4
2022-10-08T09:49:28.329Z,15.4
2022-10-08T09:50:28.299Z,15.4
2022-10-08T09:51:28.304Z,15.4
2022-10-08T09:52:28.292Z,15.4
2022-10-08T09:53:28.308Z,15.4
2022-10-08T09:54:28.317Z,15.4
2022-10-08T09:55:28.307Z,15.4
2022-10-08T09:56:28.322Z,15.4
2022-10-08T09:57:28.311Z,15.4
2022-10-08T09:58:28.304Z,15.4
2022-10-08T09:59:28.344Z,15.4
2022-10-08T10:00:28.303Z,15.4
2022-10-08T10:01:28.372Z,15.4
2022-10-08T10:02:28.288Z,15.4
2022-10-08T10:03:28.370Z,15.4
2022-10-08T10:04:28.318Z,15.4
2022-10-08T10:05:28.289Z,15.4
2022-10-08T10:06:28.305Z,15.4
2022-10-08T10:07:28.315Z,15.4
2022-10-08T10:08:28.313Z,15.4
2022-10-08T10:09:28.325Z,15.4
2022-10-08T10:10:28.303Z,15.4
2022-10-08T10:11:28.304Z,15.4
2022-10-08T10:12:28.291Z,15.4
2022-10-08T10:13:28.297Z,15.4
2022-10-08T10:14:28.303Z,15.4
2022-10-08T10:15:28.320Z,15.4
2022-10-08T10:16:28.364Z,15.4
2022-10-08T10:17:28.297Z,15.4
2022-10-08T10:18:28.301Z,15.4
2022-10-08T10:19:28.306Z,15.4
2022-10-08T10:20:28.329Z,15.4
2022-10-08T10:21:28.302Z,15.4
2022-10-08T10:22:28.291Z,15.4
2022-10-08T10:23:28.289Z,15.5
2022-10-08T10:24:28.295Z,15.4
2022-10-08T10:25:28.315Z,15.4
2022-10-08T10:26:28.291Z,15.5
2022-10-08T10:27:28.287Z,15.5
2022-10-08T10:28:28.336Z,15.5
2022-10-08T10:29:28.314Z,15.5
2022-10-08T10:30:28.302Z,15.5
2022-10-08T10:31:28.313Z,15.4
2022-10-08T10:32:31.846Z,15.4
2022-10-08T10:33:28.307Z,15.5
2022-10-08T10:34:28.297Z,15.5
2022-10-08T10:35:28.303Z,15.4
2022-10-08T10:36:28.304Z,15.4
2022-10-08T10:37:28.303Z,15.4
2022-10-08T10:38:28.309Z,15.4
2022-10-08T10:39:28.313Z,15.4
2022-10-08T10:40:28.294Z,15.4
2022-10-08T10:41:28.297Z,15.4
2022-10-08T10:42:28.305Z,15.4
2022-10-08T10:43:28.303Z,15.4
2022-10-08T10:44:28.311Z,15.4
2022-10-08T10:45:28.301Z,15.4
2022-10-08T10:46:28.335Z,15.4
2022-10-08T10:47:31.788Z,15.4
2022-10-08T10:48:28.289Z,15.4
2022-10-08T10:49:28.295Z,15.4
2022-10-08T10:50:28.319Z,15.4
2022-10-08T10:51:28.314Z,15.4
2022-10-08T10:52:28.282Z,15.4
2022-10-08T10:53:28.301Z,15.5
2022-10-08T10:54:28.307Z,15.5
2022-10-08T10:55:28.297Z,15.5
2022-10-08T10:56:28.305Z,15.5
2022-10-08T10:57:28.295Z,15.5
2022-10-08T10:58:28.310Z,15.5
2022-10-08T10:59:28.299Z,15.5
2022-10-08T11:00:28.282Z,15.5
2022-10-08T11:01:28.388Z,15.5
2022-10-08T11:02:28.316Z,15.4
2022-10-08T11:03:28.302Z,15.4
2022-10-08T11:04:28.282Z,15.4
2022-10-08T11:05:28.281Z,15.4
2022-10-08T11:06:28.303Z,15.4
2022-10-08T11:07:28.302Z,15.4
2022-10-08T11:08:28.300Z,15.4
2022-10-08T11:09:28.299Z,15.4
2022-10-08T11:10:28.309Z,15.4
2022-10-08T11:11:32.921Z,15.4
2022-10-08T11:12:28.303Z,15.4
2022-10-08T11:13:28.299Z,15.4
2022-10-08T11:14:28.285Z,15.4
2022-10-08T11:15:28.369Z,15.5
2022-10-08T11:16:28.318Z,15.4
2022-10-08T11:17:28.295Z,15.4
2022-10-08T11:18:28.295Z,15.5
2022-10-08T11:19:28.305Z,15.5
2022-10-08T11:20:28.295Z,15.5
2022-10-08T11:21:28.319Z,15.5
2022-10-08T11:22:28.316Z,15.5
2022-10-08T11:23:28.303Z,15.5
2022-10-08T11:24:28.290Z,15.5
2022-10-08T11:25:28.300Z,15.5
2022-10-08T11:26:28.317Z,15.5
2022-10-08T11:27:28.276Z,15.5
2022-10-08T11:28:28.337Z,15.5
2022-10-08T11:29:28.287Z,15.5
2022-10-08T11:30:28.285Z,15.6
2022-10-08T11:31:28.400Z,15.7
2022-10-08T11:32:28.291Z,15.8
2022-10-08T11:33:28.297Z,16
2022-10-08T11:34:28.304Z,16.3
2022-10-08T11:35:28.290Z,16.9
2022-10-08T11:36:32.828Z,17.9
2022-10-08T11:37:28.319Z,18.7
2022-10-08T11:38:28.296Z,18.8
2022-10-08T11:39:28.298Z,18.5
2022-10-08T11:40:28.609Z,18.1
2022-10-08T11:41:28.272Z,17.8
2022-10-08T11:42:28.281Z,17.5
2022-10-08T11:43:28.304Z,17.3
2022-10-08T11:44:28.314Z,17.1
2022-10-08T11:45:28.292Z,16.9
2022-10-08T11:46:28.349Z,16.7
2022-10-08T11:47:28.322Z,16.6
2022-10-08T11:48:28.289Z,16.4
2022-10-08T11:49:28.289Z,16.3
2022-10-08T11:50:28.300Z,16.3
2022-10-08T11:51:28.276Z,16.2
2022-10-08T11:52:28.278Z,16.1
2022-10-08T11:53:28.297Z,16.1
2022-10-08T11:54:28.293Z,16
2022-10-08T11:55:28.290Z,16
2022-10-08T11:56:28.283Z,15.9
2022-10-08T11:57:39.075Z,15.9
2022-10-08T11:58:28.286Z,15.9
2022-10-08T11:59:28.277Z,15.9
2022-10-08T12:00:28.302Z,15.8
2022-10-08T12:01:28.298Z,15.9
2022-10-08T12:02:28.452Z,15.8
2022-10-08T12:03:28.515Z,15.8
2022-10-08T12:04:28.286Z,15.8
2022-10-08T12:05:28.269Z,15.8
2022-10-08T12:06:28.291Z,15.8
2022-10-08T12:07:28.289Z,15.8
2022-10-08T12:08:28.278Z,15.8
2022-10-08T12:09:28.295Z,15.8
2022-10-08T12:10:28.284Z,15.8
2022-10-08T12:11:28.308Z,15.8
2022-10-08T12:12:28.317Z,15.8
2022-10-08T12:13:28.287Z,15.8
2022-10-08T12:14:28.272Z,15.8
2022-10-08T12:15:28.294Z,15.8
2022-10-08T12:16:28.350Z,15.8
2022-10-08T12:17:28.280Z,15.8
2022-10-08T12:18:28.274Z,15.8
2022-10-08T12:19:28.306Z,15.8
2022-10-08T12:20:28.288Z,15.8
2022-10-08T12:21:28.289Z,15.7
2022-10-08T12:22:28.272Z,15.8
2022-10-08T12:23:28.292Z,15.8
2022-10-08T12:24:28.299Z,15.8
2022-10-08T12:25:28.275Z,15.8
2022-10-08T12:26:28.284Z,15.8
2022-10-08T12:27:28.274Z,15.8
2022-10-08T12:28:28.382Z,15.9
2022-10-08T12:29:28.292Z,16.1
2022-10-08T12:30:28.297Z,16.3
2022-10-08T12:31:28.309Z,16.6
2022-10-08T12:32:28.287Z,16.8
2022-10-08T12:33:28.316Z,16.9
2022-10-08T12:34:28.272Z,16.9
2022-10-08T12:35:28.288Z,16.8
2022-10-08T12:36:28.267Z,16.6
2022-10-08T12:37:28.268Z,16.5
2022-10-08T12:38:28.296Z,16.4
2022-10-08T12:39:28.291Z,16.3
2022-10-08T12:40:28.292Z,16.2
2022-10-08T12:41:28.283Z,16.1
2022-10-08T12:42:28.286Z,16.1
2022-10-08T12:43:28.278Z,16
2022-10-08T12:44:28.306Z,15.9
2022-10-08T12:45:28.271Z,15.9
2022-10-08T12:46:28.363Z,15.8
2022-10-08T12:47:28.278Z,15.8
2022-10-08T12:48:28.273Z,15.8
2022-10-08T12:49:28.281Z,15.8
2022-10-08T12:50:28.286Z,15.8
2022-10-08T12:51:28.285Z,15.8
2022-10-08T12:52:28.292Z,15.8
2022-10-08T12:53:28.287Z,15.7
2022-10-08T12:54:28.307Z,15.7
2022-10-08T12:55:28.279Z,15.7
2022-10-08T12:56:28.280Z,15.6
2022-10-08T12:57:28.289Z,15.6
2022-10-08T12:58:28.276Z,15.6
2022-10-08T12:59:28.308Z,15.6
2022-10-08T13:00:28.392Z,15.6
2022-10-08T13:01:28.381Z,15.6
2022-10-08T13:02:28.268Z,15.6
2022-10-08T13:03:28.293Z,15.6
2022-10-08T13:04:28.280Z,15.6
2022-10-08T13:05:28.289Z,15.6
2022-10-08T13:06:33.069Z,15.6
2022-10-08T13:07:28.273Z,15.6
2022-10-08T13:08:28.269Z,15.6
2022-10-08T13:09:28.266Z,15.6
2022-10-08T13:10:28.271Z,15.6
2022-10-08T13:11:28.281Z,15.6
2022-10-08T13:12:28.292Z,15.6
2022-10-08T13:13:28.266Z,15.6
2022-10-08T13:14:28.256Z,15.6
2022-10-08T13:15:28.299Z,15.6
2022-10-08T13:16:28.315Z,15.6
2022-10-08T13:17:28.270Z,15.6
2022-10-08T13:18:28.286Z,15.6
2022-10-08T13:19:28.285Z,15.6